Aérodrome :
LOGIN :

S'inscrire | Disclaimer

   EN    FR    IT 

 










Légende :    VFR   VFR Marginal   IFR   IFR Intensif   IFR Très Intensif
Visi : 
Plafond : 
>= 8 km
>= 3000ft
5 à 8 km
1000 à 3000 ft
1500m à 5 km
500 à 1000 ft
800 à 1500m
200 à 500 ft
< 800m
< 200 ft
Symboles :   Orages  Brouillard  Fortes neiges  Fortes précipitations  Vent > 20 kt
SIGMETs :   Divers  Orages  Givrage  Turbulence  Onde Orograph.  Cendres Volcan.






- Altitude de l'aérodrome : -11 ft
- Code IATA : AMS


EHAM - Amsterdam Schiphol

DERNIER METAR :
  • 132025Z 23014KT 9999 FEW020 15/13 Q1008 NOSIG

METARs EXPIRÉS :
  • 131955Z 23016KT 9999 -RA FEW016 16/14 Q1007 NOSIG
  • 131925Z 23016KT 200V260 9999 -RA FEW017 16/14 Q1007 NOSIG
  • 131855Z 23016KT 9999 -SHRA NSC 16/14 Q1007 NOSIG
  • 131825Z 23016KT 9999 FEW025 16/13 Q1006 NOSIG

TAF TAF EHAM
Valide du 13 à 18h jusqu'au 15 à 00h UTC


131718Z 1318/1424 24015KT 9999 SCT030
BECMG 1400/1403 20005KT
PROB30
TEMPO 1404/1407 VRB03KT 6000 MIFG
BECMG 1409/1412 09012KT
PROB40
TEMPO 1409/1412 6000 RA
PROB40
TEMPO 1412/1414 5000 SHRA TSRA SCT050CB
PROB40
TEMPO 1418/1422 4000 BR
BECMG 1419/1422 12008KT



MET'MAP, la Météo Aéronautique d'un coup d'oeil ! - Copyright ORBIFLY Décembre 2007 - Disclaimer

ORBIFLY MET'MAP TEAM :

Programmation & Développement : Alexandra Zaïnal
Conception & Développement : Baudouin d'Aumeries
Co-Programmation & Développement : Marc-Olivier Méhu
Soutien technique & logistique : Manuel Goepfert

Contact : metmap@orbifly.com




SOURCES & CREDITS :

   NOAA